createdAt,value
2018-04-16T04:09:33.773Z,1005.5
2018-04-16T04:10:45.018Z,1005.54
2018-04-16T04:11:11.027Z,1005.49
2018-04-16T04:11:36.921Z,1005.52
2018-04-16T04:12:02.429Z,1005.57
2018-04-16T04:12:28.786Z,1005.53
2018-04-16T04:12:56.339Z,1005.56
2018-04-16T04:13:23.691Z,1005.59
2018-04-16T04:13:50.662Z,1005.54
2018-04-16T04:14:17.560Z,1005.55
2018-04-16T04:14:44.172Z,1005.59
2018-04-16T04:15:10.468Z,1005.59
2018-04-16T04:15:37.558Z,1005.6
2018-04-16T04:16:03.331Z,1005.58
2018-04-16T04:16:29.486Z,1005.6
2018-04-16T04:16:58.584Z,1005.64
2018-04-16T04:17:26.045Z,1005.64
2018-04-16T04:17:53.197Z,1005.67
2018-04-16T04:18:21.207Z,1005.66
2018-04-16T04:18:46.915Z,1005.65
2018-04-16T04:19:12.495Z,1005.62
2018-04-16T04:19:37.976Z,1005.63
2018-04-16T04:20:03.560Z,1005.62
2018-04-16T04:20:29.098Z,1005.63
2018-04-16T04:20:54.501Z,1005.65
2018-04-16T04:21:19.936Z,1005.64
2018-04-16T04:21:45.552Z,1005.65
2018-04-16T04:22:11.145Z,1005.64
2018-04-16T04:22:36.694Z,1005.66
2018-04-16T04:23:02.224Z,1005.65
2018-04-16T04:23:27.733Z,1005.68
2018-04-16T04:23:53.165Z,1005.68
2018-04-16T04:24:18.692Z,1005.66
2018-04-16T04:24:44.139Z,1005.66
2018-04-16T04:25:09.788Z,1005.68
2018-04-16T04:25:35.177Z,1005.68
2018-04-16T04:26:00.783Z,1005.7
2018-04-16T04:26:26.228Z,1005.67
2018-04-16T04:26:51.778Z,1005.71
2018-04-16T04:27:17.309Z,1005.69
2018-04-16T04:27:42.941Z,1005.71
2018-04-16T04:28:08.384Z,1005.68
2018-04-16T04:28:33.958Z,1005.7
2018-04-16T04:28:59.676Z,1005.76
2018-04-16T04:29:25.171Z,1005.75
2018-04-16T04:29:50.824Z,1005.73
2018-04-16T04:30:16.377Z,1005.68
2018-04-16T04:30:41.822Z,1005.7
2018-04-16T04:31:07.355Z,1005.69
2018-04-16T04:31:33.016Z,1005.72
2018-04-16T04:31:59.066Z,1005.71
2018-04-16T04:32:25.138Z,1005.71
2018-04-16T04:32:51.557Z,1005.71
2018-04-16T04:33:17.213Z,1005.72
2018-04-16T04:33:43.739Z,1005.71
2018-04-16T04:34:09.341Z,1005.75
2018-04-16T04:34:34.768Z,1005.72
2018-04-16T04:35:00.388Z,1005.7
2018-04-16T04:35:26.032Z,1005.68
2018-04-16T04:35:51.931Z,1005.73
2018-04-16T04:36:19.274Z,1005.7
2018-04-16T04:36:44.819Z,1005.75
2018-04-16T04:37:10.426Z,1005.69
2018-04-16T04:37:35.898Z,1005.75
2018-04-16T04:38:01.662Z,1005.75
2018-04-16T04:38:27.153Z,1005.71
2018-04-16T04:38:52.756Z,1005.72
2018-04-16T04:39:18.873Z,1005.79
2018-04-16T04:39:44.386Z,1005.75
2018-04-16T04:40:10.061Z,1005.73
2018-04-16T04:40:35.620Z,1005.8
2018-04-16T04:41:01.172Z,1005.77
2018-04-16T04:41:26.701Z,1005.8
2018-04-16T04:41:52.377Z,1005.77
2018-04-16T04:42:18.047Z,1005.79
2018-04-16T04:42:43.669Z,1005.75
2018-04-16T04:43:09.760Z,1005.77
2018-04-16T04:43:35.510Z,1005.8
2018-04-16T04:44:01.255Z,1005.8
2018-04-16T04:44:26.896Z,1005.82
2018-04-16T04:44:52.496Z,1005.82
2018-04-16T04:45:18.082Z,1005.83
2018-04-16T04:45:43.807Z,1005.89
2018-04-16T04:46:09.359Z,1005.88
2018-04-16T04:46:34.963Z,1005.9
2018-04-16T04:47:01.189Z,1005.87
2018-04-16T04:47:26.849Z,1005.89
2018-04-16T04:47:52.316Z,1005.9
2018-04-16T04:48:18.031Z,1005.88
2018-04-16T04:48:43.554Z,1005.94
2018-04-16T04:49:09.217Z,1005.93
2018-04-16T04:49:34.851Z,1005.9
2018-04-16T04:50:00.372Z,1005.95
2018-04-16T04:50:26.031Z,1005.93
2018-04-16T04:50:51.635Z,1005.89
2018-04-16T04:51:17.429Z,1005.91
2018-04-16T04:51:43.287Z,1005.94
2018-04-16T04:52:08.953Z,1005.96
2018-04-16T04:52:34.692Z,1005.91
2018-04-16T04:53:00.324Z,1005.9
2018-04-16T04:53:25.803Z,1005.87
2018-04-16T04:53:51.703Z,1005.9
2018-04-16T04:54:17.245Z,1005.91
2018-04-16T04:54:43.270Z,1005.94
2018-04-16T04:57:05.048Z,1005.91
2018-04-16T04:57:46.436Z,1005.87
2018-04-16T04:58:30.844Z,1005.91
2018-04-16T05:00:04.991Z,1005.89
2018-04-16T05:00:49.430Z,1005.9
2018-04-16T05:01:31.757Z,1005.94
2018-04-16T05:03:13.714Z,1005.96
2018-04-16T05:03:58.407Z,1005.99
2018-04-16T05:04:39.369Z,1006.04
2018-04-16T05:05:20.015Z,1006.02
2018-04-16T05:06:02.617Z,1006.03
2018-04-16T05:06:42.770Z,1006.02
2018-04-16T05:07:19.909Z,1006.02
2018-04-16T05:08:56.599Z,1006.06
2018-04-16T05:10:23.660Z,1006.05
2018-04-16T05:11:07.652Z,1006.05
2018-04-16T05:12:40.462Z,1006.06
2018-04-16T05:13:55.287Z,1006.08
2018-04-16T05:15:39.674Z,1006.08
2018-04-16T05:16:15.395Z,1006.07
2018-04-16T05:17:26.142Z,1006.09
2018-04-16T05:17:59.080Z,1006.1
2018-04-16T05:18:27.859Z,1006.12
2018-04-16T05:18:53.367Z,1006.11
2018-04-16T05:19:18.916Z,1006.1
2018-04-16T05:19:44.583Z,1006.1
2018-04-16T05:20:10.162Z,1006.14
2018-04-16T05:20:35.856Z,1006.16
2018-04-16T05:21:01.606Z,1006.18
2018-04-16T05:21:27.118Z,1006.16
2018-04-16T05:21:52.660Z,1006.14
2018-04-16T05:22:18.217Z,1006.13
2018-04-16T05:22:43.815Z,1006.14
2018-04-16T05:23:09.411Z,1006.2
2018-04-16T05:23:35.022Z,1006.18
2018-04-16T05:24:00.533Z,1006.18
2018-04-16T05:24:26.007Z,1006.16
2018-04-16T05:24:51.451Z,1006.18
2018-04-16T05:25:16.978Z,1006.18
2018-04-16T05:25:42.713Z,1006.21
2018-04-16T05:26:08.505Z,1006.23
2018-04-16T05:26:33.949Z,1006.2
2018-04-16T05:26:59.508Z,1006.2
2018-04-16T05:27:25.100Z,1006.18
2018-04-16T05:27:51.062Z,1006.2
2018-04-16T05:28:16.574Z,1006.22
2018-04-16T05:28:42.183Z,1006.23
2018-04-16T05:29:07.709Z,1006.23
2018-04-16T05:29:33.338Z,1006.2
2018-04-16T05:29:58.839Z,1006.21
2018-04-16T05:30:24.377Z,1006.2
2018-04-16T05:30:49.937Z,1006.22
2018-04-16T05:31:15.751Z,1006.23
2018-04-16T05:31:41.107Z,1006.23
2018-04-16T05:32:06.601Z,1006.24
2018-04-16T05:32:32.255Z,1006.21
2018-04-16T05:32:58.011Z,1006.26
2018-04-16T05:33:23.583Z,1006.24
2018-04-16T05:33:49.027Z,1006.26
2018-04-16T05:34:14.655Z,1006.29
2018-04-16T05:34:40.100Z,1006.32
2018-04-16T05:35:05.499Z,1006.38
2018-04-16T05:35:31.201Z,1006.36
2018-04-16T05:35:57.100Z,1006.39
2018-04-16T05:36:22.851Z,1006.38
2018-04-16T05:36:48.413Z,1006.39
2018-04-16T05:37:13.947Z,1006.39
2018-04-16T05:37:39.788Z,1006.44
2018-04-16T05:38:05.279Z,1006.44
2018-04-16T05:38:31.286Z,1006.38
2018-04-16T05:38:57.167Z,1006.43
2018-04-16T05:39:22.769Z,1006.48
2018-04-16T05:39:48.330Z,1006.5
2018-04-16T05:40:13.795Z,1006.54
2018-04-16T05:40:39.407Z,1006.55
2018-04-16T05:41:05.055Z,1006.53
2018-04-16T05:41:30.557Z,1006.52
2018-04-16T05:41:55.991Z,1006.57
2018-04-16T05:42:21.968Z,1006.52
2018-04-16T05:42:47.973Z,1006.56
2018-04-16T05:43:13.354Z,1006.56
2018-04-16T05:43:39.430Z,1006.54
2018-04-16T05:44:05.488Z,1006.59
2018-04-16T05:44:31.498Z,1006.57
2018-04-16T05:44:56.908Z,1006.54
2018-04-16T05:45:22.506Z,1006.54
2018-04-16T05:45:48.193Z,1006.58
2018-04-16T05:46:13.817Z,1006.58
2018-04-16T05:46:39.913Z,1006.56
2018-04-16T05:47:05.288Z,1006.55
2018-04-16T05:47:30.726Z,1006.57
2018-04-16T05:47:56.358Z,1006.59
2018-04-16T05:48:23.407Z,1006.57
2018-04-16T05:48:49.202Z,1006.57
2018-04-16T05:49:14.950Z,1006.59
2018-04-16T05:49:40.669Z,1006.6
2018-04-16T05:50:06.045Z,1006.65
2018-04-16T05:50:31.608Z,1006.64
2018-04-16T05:50:57.241Z,1006.64
2018-04-16T05:51:23.362Z,1006.64
2018-04-16T05:51:49.316Z,1006.66
2018-04-16T05:52:15.334Z,1006.68
2018-04-16T05:52:41.108Z,1006.68
2018-04-16T05:53:07.084Z,1006.71
2018-04-16T05:53:32.510Z,1006.7
2018-04-16T05:53:58.118Z,1006.72
2018-04-16T05:54:23.685Z,1006.69
2018-04-16T05:54:49.412Z,1006.68
2018-04-16T05:55:15.154Z,1006.66
2018-04-16T05:55:40.574Z,1006.69
2018-04-16T05:56:06.255Z,1006.69
2018-04-16T05:56:31.855Z,1006.74
2018-04-16T05:56:57.577Z,1006.73
2018-04-16T05:57:23.216Z,1006.7
2018-04-16T05:57:48.754Z,1006.69
2018-04-16T05:58:14.500Z,1006.68
2018-04-16T05:58:40.351Z,1006.68
2018-04-16T05:59:06.101Z,1006.69
2018-04-16T05:59:31.768Z,1006.67
2018-04-16T05:59:57.502Z,1006.74
2018-04-16T06:00:23.230Z,1006.73
2018-04-16T06:00:48.816Z,1006.73
2018-04-16T06:01:14.729Z,1006.74
2018-04-16T06:01:41.103Z,1006.74
2018-04-16T06:02:06.709Z,1006.74
2018-04-16T06:02:32.147Z,1006.75
2018-04-16T06:02:57.937Z,1006.76
2018-04-16T06:03:24.413Z,1006.77
2018-04-16T06:03:49.423Z,1006.77
2018-04-16T06:04:14.838Z,1006.8
2018-04-16T06:04:40.467Z,1006.82
2018-04-16T06:05:05.894Z,1006.8
2018-04-16T06:05:31.913Z,1006.82
2018-04-16T06:05:57.220Z,1006.82
2018-04-16T06:06:23.270Z,1006.82
2018-04-16T06:06:49.187Z,1006.86
2018-04-16T06:07:14.738Z,1006.85
2018-04-16T06:07:40.422Z,1006.89
2018-04-16T06:08:05.759Z,1006.9
2018-04-16T06:08:31.395Z,1006.89
2018-04-16T06:08:56.823Z,1006.92
2018-04-16T06:09:22.322Z,1006.87
2018-04-16T06:09:47.920Z,1006.92
2018-04-16T06:10:13.519Z,1006.9
2018-04-16T06:10:39.151Z,1006.94
2018-04-16T06:11:04.713Z,1006.88
2018-04-16T06:11:30.163Z,1006.86
2018-04-16T06:11:55.634Z,1006.89
2018-04-16T06:12:20.998Z,1006.85
2018-04-16T06:12:46.595Z,1006.86
2018-04-16T06:13:12.195Z,1006.9
2018-04-16T06:13:37.750Z,1006.92
2018-04-16T06:14:03.286Z,1006.92
2018-04-16T06:14:28.692Z,1006.9
2018-04-16T06:14:54.227Z,1006.91
2018-04-16T06:15:20.003Z,1006.92
2018-04-16T06:15:45.570Z,1006.94
2018-04-16T06:16:13.372Z,1006.94
2018-04-16T06:16:38.695Z,1006.91
2018-04-16T06:17:04.896Z,1006.91
2018-04-16T06:17:33.013Z,1006.95
2018-04-16T06:18:01.782Z,1006.89
2018-04-16T06:18:27.215Z,1006.9
2018-04-16T06:18:53.045Z,1006.94
2018-04-16T06:19:18.835Z,1006.91
2018-04-16T06:19:44.605Z,1006.95
2018-04-16T06:20:10.975Z,1006.92
2018-04-16T06:20:36.717Z,1006.95
2018-04-16T06:21:02.303Z,1006.94
2018-04-16T06:21:28.045Z,1006.92
2018-04-16T06:21:53.589Z,1006.92
2018-04-16T06:22:20.135Z,1006.94
2018-04-16T06:22:45.911Z,1006.93
2018-04-16T06:24:59.835Z,1006.98
2018-04-16T06:25:55.692Z,1006.92
2018-04-16T06:26:21.420Z,1006.93
2018-04-16T06:26:47.247Z,1006.91
2018-04-16T06:27:12.715Z,1006.9
2018-04-16T06:27:38.351Z,1006.9
2018-04-16T06:28:03.905Z,1006.93
2018-04-16T06:28:29.892Z,1006.93
2018-04-16T06:28:56.341Z,1006.93
2018-04-16T06:29:21.728Z,1006.93
2018-04-16T06:29:47.389Z,1006.97
2018-04-16T06:30:13.070Z,1006.95
2018-04-16T06:30:38.576Z,1006.93
2018-04-16T06:31:04.278Z,1006.92
2018-04-16T06:32:22.261Z,1006.92
2018-04-16T06:32:48.541Z,1006.9
2018-04-16T06:33:14.323Z,1006.89
2018-04-16T06:33:40.026Z,1006.87
2018-04-16T06:34:05.552Z,1006.89
2018-04-16T06:34:33.402Z,1006.87
2018-04-16T06:35:02.323Z,1006.87
2018-04-16T06:35:30.993Z,1006.87
2018-04-16T06:35:58.535Z,1006.91
2018-04-16T06:38:16.619Z,1006.98
2018-04-16T06:38:55.628Z,1006.96
2018-04-16T06:39:25.014Z,1007.01
2018-04-16T06:39:54.679Z,1007
2018-04-16T06:40:59.239Z,1007.02
2018-04-16T06:42:20.833Z,1007.04
2018-04-16T06:42:46.476Z,1007.04
2018-04-16T06:43:11.923Z,1007.02
2018-04-16T06:43:37.663Z,1007.04
2018-04-16T06:44:03.170Z,1007.03
2018-04-16T06:44:29.254Z,1007.05
2018-04-16T06:44:55.201Z,1007.03
2018-04-16T06:45:20.703Z,1007.05
2018-04-16T06:45:46.393Z,1007.03
2018-04-16T06:46:12.500Z,1007.02
2018-04-16T06:46:40.421Z,1007.01
2018-04-16T06:47:06.893Z,1007
2018-04-16T06:49:15.073Z,1007.04
2018-04-16T06:49:41.406Z,1007.04
2018-04-16T06:50:07.296Z,1007.04
2018-04-16T06:50:33.476Z,1007.04
2018-04-16T06:50:58.835Z,1007.06
2018-04-16T06:51:24.779Z,1007.1
2018-04-16T06:51:50.334Z,1007.06
2018-04-16T06:53:57.115Z,1007.04
2018-04-16T06:55:31.549Z,1007.07
2018-04-16T06:55:59.045Z,1007.1
2018-04-16T06:56:25.485Z,1007.1
2018-04-16T06:56:51.475Z,1007.1
2018-04-16T06:57:17.187Z,1007.13
2018-04-16T07:00:14.753Z,1007.14
2018-04-16T07:00:43.636Z,1007.16
2018-04-16T07:01:09.305Z,1007.15
2018-04-16T07:01:35.607Z,1007.13
2018-04-16T07:02:01.656Z,1007.14
2018-04-16T07:02:27.558Z,1007.13
2018-04-16T07:02:55.300Z,1007.16
2018-04-16T07:03:21.650Z,1007.19
2018-04-16T07:03:47.268Z,1007.15
2018-04-16T07:05:01.884Z,1007.15
2018-04-16T07:05:26.687Z,1007.19
2018-04-16T07:05:52.879Z,1007.12
2018-04-16T07:06:19.759Z,1007.17
2018-04-16T07:06:49.496Z,1007.15
2018-04-16T07:07:14.077Z,1007.2
2018-04-16T07:10:14.546Z,1007.26
2018-04-16T07:10:40.916Z,1007.23
2018-04-16T07:12:14.120Z,1007.25
2018-04-16T07:13:30.376Z,1007.23
2018-04-16T07:13:55.587Z,1007.27
2018-04-16T07:14:21.070Z,1007.27
2018-04-16T07:14:52.280Z,1007.31
2018-04-16T07:15:17.863Z,1007.27
2018-04-16T07:15:43.421Z,1007.26
2018-04-16T07:16:08.948Z,1007.26
2018-04-16T07:16:34.598Z,1007.28
2018-04-16T07:16:59.926Z,1007.33
2018-04-16T07:17:25.693Z,1007.34
2018-04-16T07:17:51.227Z,1007.32
2018-04-16T07:18:16.911Z,1007.33
2018-04-16T07:18:47.316Z,1007.28
2018-04-16T07:19:14.238Z,1007.29
2018-04-16T07:19:39.846Z,1007.27
2018-04-16T07:20:05.574Z,1007.31
2018-04-16T07:20:32.332Z,1007.3
2018-04-16T07:20:57.832Z,1007.31
2018-04-16T07:21:23.388Z,1007.34
2018-04-16T07:21:49.285Z,1007.33
2018-04-16T07:22:14.838Z,1007.29
2018-04-16T07:22:40.387Z,1007.31
2018-04-16T07:23:06.072Z,1007.28
2018-04-16T07:23:31.392Z,1007.34
2018-04-16T07:23:57.404Z,1007.31
2018-04-16T07:24:24.129Z,1007.37
2018-04-16T07:24:53.464Z,1007.35
2018-04-16T07:25:24.532Z,1007.36
2018-04-16T07:25:53.005Z,1007.34
2018-04-16T07:26:21.700Z,1007.34
2018-04-16T07:26:47.297Z,1007.35
2018-04-16T07:27:14.098Z,1007.36
2018-04-16T07:27:39.730Z,1007.37
2018-04-16T07:28:05.529Z,1007.37
2018-04-16T07:28:31.088Z,1007.38
2018-04-16T07:28:56.548Z,1007.42
2018-04-16T07:29:22.191Z,1007.4
2018-04-16T07:29:47.706Z,1007.45
2018-04-16T07:30:13.483Z,1007.41
2018-04-16T07:30:38.884Z,1007.46
2018-04-16T07:31:04.375Z,1007.43
2018-04-16T07:31:29.993Z,1007.42
2018-04-16T07:31:55.715Z,1007.48
2018-04-16T07:32:21.293Z,1007.48
2018-04-16T07:32:46.795Z,1007.52
2018-04-16T07:33:12.543Z,1007.48
2018-04-16T07:33:38.918Z,1007.52
2018-04-16T07:34:04.743Z,1007.55
2018-04-16T07:34:30.794Z,1007.51
2018-04-16T07:34:56.714Z,1007.49
2018-04-16T07:35:22.149Z,1007.51
2018-04-16T07:35:48.051Z,1007.55
2018-04-16T07:36:13.837Z,1007.53
2018-04-16T07:36:40.438Z,1007.52
2018-04-16T07:37:06.435Z,1007.51
2018-04-16T07:37:33.079Z,1007.56
2018-04-16T07:38:03.447Z,1007.58
2018-04-16T07:38:39.186Z,1007.61
2018-04-16T07:40:52.741Z,1007.65
2018-04-16T07:41:19.932Z,1007.65
2018-04-16T07:41:45.474Z,1007.66
2018-04-16T07:42:11.133Z,1007.63
2018-04-16T07:43:35.758Z,1007.68
2018-04-16T07:45:27.797Z,1007.66
2018-04-16T07:45:56.926Z,1007.63
2018-04-16T07:46:23.562Z,1007.67
2018-04-16T07:46:49.521Z,1007.68
2018-04-16T07:49:36.789Z,1007.72
2018-04-16T07:50:02.530Z,1007.68
2018-04-16T07:50:28.405Z,1007.75
2018-04-16T07:50:54.090Z,1007.72
2018-04-16T07:51:19.745Z,1007.71
2018-04-16T07:51:45.288Z,1007.73
2018-04-16T07:52:11.040Z,1007.75
2018-04-16T07:52:36.668Z,1007.74
2018-04-16T07:53:03.000Z,1007.76
2018-04-16T07:53:27.915Z,1007.76
2018-04-16T07:53:53.689Z,1007.76
2018-04-16T07:54:19.270Z,1007.79
2018-04-16T07:54:44.855Z,1007.79
2018-04-16T07:55:10.318Z,1007.83
2018-04-16T07:55:36.206Z,1007.76
2018-04-16T07:56:01.893Z,1007.79
2018-04-16T07:56:27.703Z,1007.8
2018-04-16T07:56:53.409Z,1007.84
2018-04-16T07:57:19.819Z,1007.87
2018-04-16T07:57:45.588Z,1007.85
2018-04-16T07:58:11.019Z,1007.86
2018-04-16T07:58:36.521Z,1007.8
2018-04-16T07:59:02.252Z,1007.83
2018-04-16T08:00:28.042Z,1007.85
2018-04-16T08:02:42.688Z,1007.88
2018-04-16T08:03:19.342Z,1007.84
2018-04-16T08:03:45.014Z,1007.85
2018-04-16T08:04:10.919Z,1007.89
2018-04-16T08:04:36.692Z,1007.88
2018-04-16T08:05:02.206Z,1007.86
2018-04-16T08:05:27.854Z,1007.86
2018-04-16T08:07:17.440Z,1007.89
2018-04-16T08:07:48.449Z,1007.91
2018-04-16T08:09:16.856Z,1007.93
2018-04-16T08:09:44.165Z,1007.94
2018-04-16T08:10:17.433Z,1007.95
2018-04-16T08:10:41.525Z,1007.94
2018-04-16T08:11:08.365Z,1007.93
2018-04-16T08:11:36.609Z,1007.94
2018-04-16T08:12:02.215Z,1007.97
2018-04-16T08:12:27.912Z,1007.96
2018-04-16T08:12:56.810Z,1007.94
2018-04-16T08:13:22.284Z,1007.95
2018-04-16T08:13:51.054Z,1007.94
2018-04-16T08:14:18.178Z,1007.94
2018-04-16T08:14:43.906Z,1008
2018-04-16T08:15:09.479Z,1007.96
2018-04-16T08:15:35.097Z,1007.95
2018-04-16T08:16:01.019Z,1008
2018-04-16T08:16:37.252Z,1008.02
